createdAt,value
2023-05-21T00:02:58.151Z,55.20
2023-05-21T00:06:23.298Z,55.40
2023-05-21T00:09:48.689Z,55.30
2023-05-21T00:13:13.730Z,55.30
2023-05-21T00:16:37.625Z,55.60
2023-05-21T00:20:05.991Z,55.50
2023-05-21T00:23:32.552Z,55.70
2023-05-21T00:26:56.609Z,55.60
2023-05-21T00:30:20.722Z,55.70
2023-05-21T00:33:45.051Z,55.80
2023-05-21T00:37:10.506Z,55.90
2023-05-21T00:40:35.479Z,56.10
2023-05-21T00:44:00.258Z,56.10
2023-05-21T00:47:24.213Z,56.00
2023-05-21T00:50:49.438Z,56.10
2023-05-21T00:54:14.508Z,56.10
2023-05-21T00:57:38.599Z,56.30
2023-05-21T01:01:03.650Z,56.30
2023-05-21T01:04:27.574Z,56.40
2023-05-21T01:07:51.599Z,56.40
2023-05-21T01:11:16.584Z,56.60
2023-05-21T01:14:41.948Z,56.60
2023-05-21T01:18:05.920Z,56.60
2023-05-21T01:21:31.970Z,56.60
2023-05-21T01:24:56.867Z,56.70
2023-05-21T01:28:20.485Z,56.80
2023-05-21T01:31:57.660Z,57.40
2023-05-21T01:35:27.593Z,57.10
2023-05-21T01:39:02.430Z,57.70
2023-05-21T01:42:30.996Z,57.20
2023-05-21T01:45:58.259Z,57.20
2023-05-21T01:49:23.853Z,57.30
2023-05-21T01:52:51.832Z,57.90
2023-05-21T01:56:15.955Z,57.50
2023-05-21T01:59:41.020Z,57.20
2023-05-21T02:03:04.824Z,57.30
2023-05-21T02:06:28.971Z,57.40
2023-05-21T02:09:52.615Z,57.50
2023-05-21T02:13:21.912Z,57.30
2023-05-21T02:16:48.034Z,57.50
2023-05-21T02:20:13.550Z,57.50
2023-05-21T02:23:37.111Z,57.60
2023-05-21T02:27:00.921Z,58.10
2023-05-21T02:30:24.488Z,57.70
2023-05-21T02:33:49.416Z,57.80
2023-05-21T02:37:12.972Z,57.80
2023-05-21T02:40:36.495Z,57.80
2023-05-21T02:44:00.432Z,58.00
2023-05-21T02:47:25.496Z,58.00
2023-05-21T02:50:52.053Z,58.10
2023-05-21T02:54:16.648Z,58.30
2023-05-21T02:57:40.767Z,58.10
2023-05-21T03:01:04.550Z,58.10
2023-05-21T03:04:29.079Z,58.20
2023-05-21T03:07:54.257Z,58.30
2023-05-21T03:11:19.930Z,58.30
2023-05-21T03:14:44.124Z,58.30
2023-05-21T03:18:07.866Z,58.30
2023-05-21T03:21:31.696Z,58.30
2023-05-21T03:24:58.180Z,58.20
2023-05-21T03:28:21.726Z,58.40
2023-05-21T03:31:46.482Z,58.40
2023-05-21T03:35:11.445Z,58.40
2023-05-21T03:38:37.086Z,58.50
2023-05-21T03:42:02.711Z,58.60
2023-05-21T03:45:39.813Z,58.80
2023-05-21T03:49:27.783Z,58.70
2023-05-21T03:52:53.382Z,58.70
2023-05-21T03:56:17.013Z,58.70
2023-05-21T03:59:42.333Z,58.80
2023-05-21T04:03:07.230Z,59.00
2023-05-21T04:06:31.158Z,58.90
2023-05-21T04:09:55.007Z,59.00
2023-05-21T04:13:18.556Z,59.10
2023-05-21T04:16:44.797Z,59.30
2023-05-21T04:20:10.685Z,59.50
2023-05-21T04:23:36.685Z,59.60
2023-05-21T04:27:05.012Z,59.60
2023-05-21T04:30:29.314Z,59.70
2023-05-21T04:33:54.194Z,59.70
2023-05-21T04:37:18.805Z,59.80
2023-05-21T04:40:42.344Z,59.80
2023-05-21T04:44:08.009Z,59.70
2023-05-21T04:47:35.338Z,60.00
2023-05-21T04:51:01.431Z,60.00
2023-05-21T04:54:24.912Z,60.20
2023-05-21T04:57:48.403Z,60.20
2023-05-21T05:01:12.903Z,60.40
2023-05-21T05:04:36.508Z,60.50
2023-05-21T05:08:01.347Z,60.40
2023-05-21T05:11:26.328Z,60.60
2023-05-21T05:14:49.840Z,60.60
2023-05-21T05:18:13.427Z,60.70
2023-05-21T05:21:37.814Z,60.70
2023-05-21T05:25:02.957Z,61.10
2023-05-21T05:28:26.492Z,60.90
2023-05-21T05:31:50.900Z,60.90
2023-05-21T05:35:14.530Z,61.10
2023-05-21T05:38:38.058Z,61.20
2023-05-21T05:42:03.217Z,61.50
2023-05-21T05:45:27.001Z,61.80
2023-05-21T05:48:51.095Z,62.00
2023-05-21T05:52:14.860Z,62.40
2023-05-21T05:55:38.674Z,62.80
2023-05-21T05:59:04.066Z,62.90
2023-05-21T06:02:30.385Z,63.10
2023-05-21T06:05:54.815Z,63.00
2023-05-21T06:09:19.154Z,62.90
2023-05-21T06:12:42.739Z,62.60
2023-05-21T06:16:10.067Z,62.10
2023-05-21T06:19:34.299Z,61.90
2023-05-21T06:22:57.967Z,61.70
2023-05-21T06:26:23.154Z,61.90
2023-05-21T06:29:48.292Z,62.50
2023-05-21T06:33:13.249Z,63.40
2023-05-21T06:36:37.287Z,64.00
2023-05-21T06:40:00.911Z,65.10
2023-05-21T06:43:24.624Z,65.20
2023-05-21T06:47:07.069Z,64.10
2023-05-21T06:50:32.194Z,62.90
2023-05-21T06:53:56.752Z,62.30
2023-05-21T06:57:21.346Z,62.10
2023-05-21T07:00:45.002Z,62.40
2023-05-21T07:04:08.523Z,62.10
2023-05-21T07:07:34.957Z,61.40
2023-05-21T07:10:59.110Z,60.70
2023-05-21T07:14:23.010Z,60.50
2023-05-21T07:17:47.967Z,60.40
2023-05-21T07:21:12.388Z,60.20
2023-05-21T07:24:37.447Z,59.80
2023-05-21T07:28:01.061Z,59.30
2023-05-21T07:31:25.245Z,59.10
2023-05-21T07:34:49.691Z,58.80
2023-05-21T07:38:14.062Z,58.40
2023-05-21T07:41:39.110Z,58.20
2023-05-21T07:45:05.469Z,57.80
2023-05-21T07:48:35.544Z,57.80
2023-05-21T07:52:00.326Z,57.70
2023-05-21T07:55:23.933Z,57.70
2023-05-21T07:58:50.472Z,57.70
2023-05-21T08:02:14.744Z,57.90
2023-05-21T08:05:38.485Z,57.90
2023-05-21T08:09:02.859Z,57.70
2023-05-21T08:12:26.855Z,57.30
2023-05-21T08:15:53.376Z,56.60
2023-05-21T08:19:18.555Z,55.70
2023-05-21T08:22:43.630Z,54.40
2023-05-21T08:26:08.488Z,53.20
2023-05-21T08:29:34.088Z,51.80
2023-05-21T08:32:59.453Z,50.40
2023-05-21T08:36:24.695Z,49.20
2023-05-21T08:39:53.196Z,49.00
2023-05-21T08:43:18.551Z,48.60
2023-05-21T08:46:51.123Z,48.10
2023-05-21T08:50:19.496Z,46.90
2023-05-21T08:53:45.743Z,46.80
2023-05-21T08:57:12.028Z,46.70
2023-05-21T09:00:35.811Z,46.20
2023-05-21T09:04:16.311Z,44.40
2023-05-21T09:07:56.642Z,44.50
2023-05-21T09:11:30.292Z,44.20
2023-05-21T09:14:57.851Z,43.90
2023-05-21T09:18:27.526Z,43.70
2023-05-21T09:22:11.493Z,43.20
2023-05-21T09:25:41.993Z,42.90
2023-05-21T09:29:09.603Z,42.70
2023-05-21T09:32:33.128Z,42.70
2023-05-21T09:35:57.476Z,42.80
2023-05-21T09:39:30.056Z,43.00
2023-05-21T09:42:58.614Z,42.80
2023-05-21T09:46:26.752Z,43.40
2023-05-21T09:49:51.013Z,44.20
2023-05-21T09:53:15.187Z,44.60
2023-05-21T09:56:38.831Z,44.70
2023-05-21T10:00:06.456Z,44.40
2023-05-21T10:03:41.731Z,44.00
2023-05-21T10:07:08.225Z,43.60
2023-05-21T10:10:33.939Z,43.80
2023-05-21T10:14:05.979Z,44.30
2023-05-21T10:17:32.143Z,44.20
2023-05-21T10:20:59.906Z,44.00
2023-05-21T10:24:28.031Z,43.40
2023-05-21T10:27:55.705Z,42.80
2023-05-21T10:31:22.828Z,42.80
2023-05-21T10:34:54.501Z,42.00
2023-05-21T10:38:21.509Z,41.10
2023-05-21T10:41:58.444Z,40.80
2023-05-21T10:45:37.490Z,40.40
2023-05-21T10:49:25.494Z,40.50
2023-05-21T10:53:10.766Z,40.70
2023-05-21T10:56:43.448Z,40.30
2023-05-21T11:00:10.625Z,40.80
2023-05-21T11:03:37.662Z,41.00
2023-05-21T11:07:01.700Z,41.20
2023-05-21T11:10:38.391Z,41.20
2023-05-21T11:14:02.330Z,41.20
2023-05-21T11:17:42.005Z,41.30
2023-05-21T11:21:07.650Z,41.00
2023-05-21T11:24:34.723Z,41.20
2023-05-21T11:28:09.379Z,41.30
2023-05-21T11:31:38.449Z,41.20
2023-05-21T11:35:03.047Z,41.30
2023-05-21T11:38:30.895Z,41.40
2023-05-21T11:42:00.942Z,41.00
2023-05-21T11:45:31.837Z,40.90
2023-05-21T11:48:57.617Z,41.00
2023-05-21T11:52:21.530Z,41.10
2023-05-21T11:55:47.342Z,41.30
2023-05-21T11:59:18.763Z,41.30
2023-05-21T12:02:48.922Z,41.30
2023-05-21T12:06:13.161Z,41.40
2023-05-21T12:09:41.163Z,41.30
2023-05-21T12:13:05.304Z,41.20
2023-05-21T12:16:29.030Z,41.40
2023-05-21T12:19:56.624Z,41.60
2023-05-21T12:23:21.915Z,41.60
2023-05-21T12:26:46.500Z,41.50
2023-05-21T12:30:11.148Z,41.40
2023-05-21T12:33:35.899Z,41.40
2023-05-21T12:37:00.969Z,41.40
2023-05-21T12:40:38.324Z,41.50
2023-05-21T12:44:02.728Z,41.30
2023-05-21T12:47:27.774Z,40.90
2023-05-21T12:50:53.440Z,40.60
2023-05-21T12:54:18.377Z,40.20
2023-05-21T12:57:43.810Z,40.20
2023-05-21T13:01:09.156Z,40.10
2023-05-21T13:04:32.710Z,40.00
2023-05-21T13:07:56.390Z,40.10
2023-05-21T13:11:21.389Z,40.10
2023-05-21T13:14:44.964Z,40.10
2023-05-21T13:18:08.641Z,40.20
2023-05-21T13:21:32.230Z,40.30
2023-05-21T13:24:55.785Z,40.20
2023-05-21T13:28:20.686Z,40.10
2023-05-21T13:31:45.369Z,40.00
2023-05-21T13:35:11.892Z,40.20
2023-05-21T13:38:35.536Z,40.30
2023-05-21T13:41:59.477Z,40.40
2023-05-21T13:45:28.980Z,40.20
2023-05-21T13:48:52.675Z,40.00
2023-05-21T13:52:17.040Z,40.30
2023-05-21T13:55:40.554Z,40.30
2023-05-21T13:59:04.313Z,40.40
2023-05-21T14:02:29.467Z,40.40
2023-05-21T14:05:53.745Z,40.20
2023-05-21T14:09:17.423Z,40.20
2023-05-21T14:12:42.009Z,40.20
2023-05-21T14:16:06.503Z,40.10
2023-05-21T14:19:31.628Z,40.10
2023-05-21T14:22:55.224Z,39.90
2023-05-21T14:26:20.597Z,39.90
2023-05-21T14:29:44.304Z,39.90
2023-05-21T14:33:07.966Z,39.90
2023-05-21T14:36:32.959Z,39.60
2023-05-21T14:39:56.533Z,39.30
2023-05-21T14:43:20.090Z,39.20
2023-05-21T14:46:43.614Z,38.90
2023-05-21T14:50:08.962Z,38.80
2023-05-21T14:53:33.856Z,38.80
2023-05-21T14:56:57.417Z,38.60
2023-05-21T15:00:21.159Z,38.30
2023-05-21T15:03:44.856Z,38.00
2023-05-21T15:07:08.507Z,37.90
2023-05-21T15:10:33.578Z,37.90
2023-05-21T15:13:57.171Z,38.00
2023-05-21T15:17:20.859Z,38.10
2023-05-21T15:20:44.451Z,38.00
2023-05-21T15:24:08.151Z,37.80
2023-05-21T15:27:33.725Z,37.80
2023-05-21T15:30:57.212Z,37.80
2023-05-21T15:34:20.783Z,37.80
2023-05-21T15:37:45.394Z,38.00
2023-05-21T15:41:09.020Z,38.00
2023-05-21T15:44:34.098Z,38.10
2023-05-21T15:47:57.939Z,38.00
2023-05-21T15:51:21.603Z,38.00
2023-05-21T15:54:45.217Z,38.00
2023-05-21T15:58:08.689Z,38.00
2023-05-21T16:01:34.232Z,37.90
2023-05-21T16:04:57.975Z,37.90
2023-05-21T16:08:21.717Z,38.00
2023-05-21T16:11:45.716Z,38.00
2023-05-21T16:15:10.676Z,37.80
2023-05-21T16:18:35.784Z,38.00
2023-05-21T16:21:59.298Z,37.80
2023-05-21T16:25:23.094Z,38.70
2023-05-21T16:28:46.843Z,38.80
2023-05-21T16:32:10.701Z,38.70
2023-05-21T16:35:35.875Z,38.70
2023-05-21T16:38:59.594Z,38.80
2023-05-21T16:42:23.802Z,38.70
2023-05-21T16:45:49.437Z,38.90
2023-05-21T16:49:13.057Z,40.00
2023-05-21T16:52:37.950Z,39.40
2023-05-21T16:56:01.469Z,39.70
2023-05-21T16:59:25.162Z,40.00
2023-05-21T17:02:48.901Z,40.30
2023-05-21T17:06:13.816Z,40.30
2023-05-21T17:09:38.721Z,40.20
2023-05-21T17:13:10.165Z,40.20
2023-05-21T17:16:44.999Z,40.30
2023-05-21T17:20:10.325Z,40.30
2023-05-21T17:23:34.597Z,40.60
2023-05-21T17:26:59.508Z,40.70
2023-05-21T17:30:23.128Z,40.80
2023-05-21T17:33:46.776Z,41.10
2023-05-21T17:37:10.392Z,41.00
2023-05-21T17:40:35.812Z,41.20
2023-05-21T17:44:03.511Z,41.40
2023-05-21T17:47:27.062Z,41.60
2023-05-21T17:50:50.994Z,41.60
2023-05-21T17:54:14.928Z,41.80
2023-05-21T17:57:38.483Z,42.00
2023-05-21T18:01:03.757Z,42.10
2023-05-21T18:04:27.430Z,42.30
2023-05-21T18:07:51.161Z,42.40
2023-05-21T18:11:14.715Z,42.50
2023-05-21T18:14:39.412Z,42.50
2023-05-21T18:18:04.752Z,42.70
2023-05-21T18:21:28.677Z,43.00
2023-05-21T18:24:52.612Z,43.10
2023-05-21T18:28:16.496Z,43.10
2023-05-21T18:31:40.593Z,43.20
2023-05-21T18:35:06.986Z,43.30
2023-05-21T18:38:31.077Z,43.70
2023-05-21T18:42:11.540Z,43.80
2023-05-21T18:45:37.096Z,44.00
2023-05-21T18:49:01.233Z,44.10
2023-05-21T18:52:27.059Z,44.40
2023-05-21T18:55:51.062Z,44.60
2023-05-21T18:59:15.073Z,44.80
2023-05-21T19:02:38.962Z,45.50
2023-05-21T19:06:03.575Z,44.90
2023-05-21T19:09:29.265Z,45.10
2023-05-21T19:12:53.830Z,45.40
2023-05-21T19:16:18.117Z,45.30
2023-05-21T19:19:42.195Z,45.50
2023-05-21T19:23:06.262Z,45.70
2023-05-21T19:26:31.685Z,45.90
2023-05-21T19:29:55.608Z,45.00
2023-05-21T19:33:19.675Z,46.10
2023-05-21T19:36:52.816Z,46.20
2023-05-21T19:40:18.073Z,45.90
2023-05-21T19:43:43.560Z,46.50
2023-05-21T19:47:08.427Z,46.30
2023-05-21T19:50:32.496Z,46.80
2023-05-21T19:53:56.495Z,47.00
2023-05-21T19:57:20.732Z,47.00
2023-05-21T20:00:48.450Z,47.00
2023-05-21T20:04:12.838Z,47.30
2023-05-21T20:07:36.950Z,47.40
2023-05-21T20:11:00.926Z,47.30
2023-05-21T20:14:24.906Z,47.50
2023-05-21T20:17:51.256Z,47.60
2023-05-21T20:21:15.430Z,47.80
2023-05-21T20:24:39.401Z,47.80
2023-05-21T20:28:04.031Z,47.80
2023-05-21T20:31:28.660Z,48.00
2023-05-21T20:35:02.696Z,48.00
2023-05-21T20:38:27.908Z,48.20
2023-05-21T20:41:53.681Z,48.20
2023-05-21T20:45:17.720Z,48.40
2023-05-21T20:48:41.849Z,48.40
2023-05-21T20:52:07.919Z,48.60
2023-05-21T20:55:34.676Z,48.80
2023-05-21T20:58:58.347Z,48.80
2023-05-21T21:02:22.907Z,48.90
2023-05-21T21:05:46.625Z,49.10
2023-05-21T21:09:11.831Z,49.00
2023-05-21T21:12:35.419Z,49.00
2023-05-21T21:15:58.975Z,49.20
2023-05-21T21:19:22.543Z,49.50
2023-05-21T21:22:46.540Z,49.40
2023-05-21T21:26:11.520Z,49.40
2023-05-21T21:29:35.231Z,49.80
2023-05-21T21:32:59.020Z,49.60
2023-05-21T21:36:22.602Z,50.00
2023-05-21T21:39:46.239Z,50.00
2023-05-21T21:43:11.673Z,50.20
2023-05-21T21:46:35.258Z,50.40
2023-05-21T21:49:58.814Z,50.30
2023-05-21T21:53:23.063Z,50.50
2023-05-21T21:56:46.496Z,50.70
2023-05-21T22:00:16.186Z,50.60
2023-05-21T22:03:39.811Z,51.10
2023-05-21T22:07:03.399Z,51.10
2023-05-21T22:10:27.004Z,51.20
2023-05-21T22:13:50.635Z,51.20
2023-05-21T22:17:17.822Z,51.50
2023-05-21T22:20:41.430Z,51.70
2023-05-21T22:24:05.358Z,51.80
2023-05-21T22:27:29.285Z,51.90
2023-05-21T22:30:52.804Z,51.90
2023-05-21T22:34:17.690Z,52.10
2023-05-21T22:37:41.412Z,52.20
2023-05-21T22:41:05.496Z,52.30
2023-05-21T22:44:29.104Z,52.30
2023-05-21T22:47:52.815Z,52.30
2023-05-21T22:51:17.773Z,52.40
2023-05-21T22:54:41.293Z,52.60
2023-05-21T22:58:04.875Z,52.60
2023-05-21T23:01:28.462Z,52.70
2023-05-21T23:04:52.076Z,52.80
2023-05-21T23:08:16.964Z,52.80
2023-05-21T23:11:40.545Z,53.00
2023-05-21T23:15:07.270Z,53.00
2023-05-21T23:18:30.976Z,53.30
2023-05-21T23:21:54.718Z,53.80
2023-05-21T23:25:19.736Z,53.30
2023-05-21T23:28:43.602Z,53.40
2023-05-21T23:32:07.797Z,53.40
2023-05-21T23:35:31.477Z,53.70
2023-05-21T23:38:54.987Z,53.60
2023-05-21T23:42:20.406Z,53.70
2023-05-21T23:45:44.550Z,54.00
2023-05-21T23:49:08.266Z,53.90
2023-05-21T23:52:31.958Z,54.00
2023-05-21T23:55:55.496Z,54.00
2023-05-21T23:59:20.470Z,54.10
